Time;durP1;ratioP1;P1;durP2;ratioP2;P2;SDS_P1;SDS_P2;PMS_P1;PMS_P2;Temp;Humidity;BMP_temperature;BMP_pressure;BME280_temperature;BME280_humidity;BME280_pressure;Samples;Min_cycle;Max_cycle;Signal;HPM_P1;HPM_P2
2021/10/29 00:00:53;;;;;;;;;;;;;;;13.22;71.89;101408.95;1662266;85;21033;-59
2021/10/29 00:03:20;;;;;;;11.43;10.33;;;;;;;13.23;72.01;101402.57;1653135;85;20114;-58
2021/10/29 00:05:46;;;;;;;12.25;11.00;;;;;;;13.16;72.08;101403.47;1620956;86;21197;-59
2021/10/29 00:08:12;;;;;;;13.18;11.35;;;;;;;13.14;72.15;101402.30;1675628;83;21092;-59
2021/10/29 00:10:41;;;;;;;11.12;10.05;;;;;;;13.16;72.08;101406.15;1688349;83;21025;-58
2021/10/29 00:13:08;;;;;;;10.30;9.38;;;;;;;13.17;72.12;101407.83;1640691;84;21088;-60
2021/10/29 00:15:35;;;;;;;10.05;9.05;;;;;;;13.18;71.97;101404.95;1632678;86;21073;-61
2021/10/29 00:18:02;;;;;;;11.15;9.95;;;;;;;13.24;71.81;101401.58;1653572;84;21068;-59
2021/10/29 00:20:28;;;;;;;10.53;9.28;;;;;;;13.30;71.78;101405.41;1657744;84;21041;-59
2021/10/29 00:22:55;;;;;;;;;;;;;;;13.32;71.70;101404.72;1662730;84;21009;-56
2021/10/29 00:25:20;;;;;;;11.90;10.82;;;;;;;13.30;71.70;101403.18;1660254;84;20163;-58
2021/10/29 00:27:48;;;;;;;10.75;9.70;;;;;;;13.22;71.83;101397.39;1659687;84;21144;-58
2021/10/29 00:30:14;;;;;;;;;;;;;;;13.22;71.88;101401.41;1663481;84;21038;-58
2021/10/29 00:32:41;;;;;;;15.23;11.97;;;;;;;13.18;71.79;101402.27;1634075;86;20123;-58
2021/10/29 00:35:08;;;;;;;12.47;11.18;;;;;;;13.07;71.96;101398.67;1673117;84;21053;-58
2021/10/29 00:37:38;;;;;;;11.65;10.48;;;;;;;13.03;72.01;101401.38;1673509;84;21112;-58
2021/10/29 00:40:11;;;;;;;12.88;11.53;;;;;;;13.03;72.16;101407.59;1667778;84;21118;-58
2021/10/29 00:42:39;;;;;;;14.03;12.07;;;;;;;13.01;72.35;101408.25;1653716;84;21078;-58
2021/10/29 00:45:08;;;;;;;13.90;12.60;;;;;;;13.02;72.59;101407.77;1660657;84;21062;-58
2021/10/29 00:47:35;;;;;;;13.88;11.88;;;;;;;13.01;72.65;101407.42;1648039;86;21092;-58
2021/10/29 00:50:02;;;;;;;14.50;13.05;;;;;;;13.01;72.63;101413.60;1622445;86;21118;-58
2021/10/29 00:52:28;;;;;;;12.85;11.55;;;;;;;13.00;72.66;101415.97;1632243;85;21022;-59
2021/10/29 00:54:55;;;;;;;12.07;10.03;;;;;;;13.02;72.64;101419.81;1625676;86;21022;-59
2021/10/29 00:57:21;;;;;;;11.18;10.20;;;;;;;12.99;72.60;101404.92;1638989;85;21101;-59
2021/10/29 00:59:50;;;;;;;12.23;10.88;;;;;;;13.05;72.67;101410.92;1641946;85;21076;-57
2021/10/29 01:02:16;;;;;;;12.28;11.03;;;;;;;13.05;72.70;101408.25;1656221;84;21006;-58
2021/10/29 01:04:43;;;;;;;13.45;12.03;;;;;;;13.04;72.73;101411.09;1695123;83;21116;-58
2021/10/29 01:07:11;;;;;;;12.82;11.53;;;;;;;13.02;72.73;101413.12;1696919;83;20988;-59
2021/10/29 01:09:37;;;;;;;14.43;10.45;;;;;;;13.01;72.75;101412.78;1665461;84;21038;-57
2021/10/29 01:12:06;;;;;;;11.15;10.03;;;;;;;13.02;72.66;101407.77;1626562;86;21045;-58
2021/10/29 01:14:33;;;;;;;9.93;9.03;;;;;;;13.04;72.48;101401.73;1643067;85;21046;-59
2021/10/29 01:16:59;;;;;;;10.70;9.63;;;;;;;13.05;72.44;101398.88;1663812;84;21034;-59
2021/10/29 01:19:32;;;;;;;12.10;9.68;;;;;;;13.06;72.49;101395.69;1624986;86;21090;-59
2021/10/29 01:22:01;;;;;;;11.53;10.43;;;;;;;13.01;72.52;101399.39;1660595;85;21084;-58
2021/10/29 01:24:28;;;;;;;12.40;10.88;;;;;;;12.95;72.54;101392.91;1696826;83;20989;-59
2021/10/29 01:26:55;;;;;;;10.40;9.48;;;;;;;12.89;72.46;101397.64;1683911;83;21235;-59
2021/10/29 01:29:22;;;;;;;11.20;10.10;;;;;;;12.83;72.52;101397.02;1693132;83;21029;-59
2021/10/29 01:31:48;;;;;;;10.25;9.25;;;;;;;12.81;72.47;101398.53;1682945;83;21099;-58
2021/10/29 01:34:14;;;;;;;10.48;9.50;;;;;;;12.78;72.41;101396.20;1676158;83;21051;-58
2021/10/29 01:36:41;;;;;;;;;;;;;;;12.71;72.54;101395.75;1677792;83;20985;-57
2021/10/29 01:39:07;;;;;;;12.10;10.68;;;;;;;12.58;72.76;101411.89;1680441;83;20190;-57
2021/10/29 01:41:33;;;;;;;14.90;12.37;;;;;;;12.39;73.20;101406.43;1673625;84;21021;-59
2021/10/29 01:43:59;;;;;;;12.60;11.30;;;;;;;12.29;73.53;101411.17;1692212;83;20989;-58
2021/10/29 01:46:25;;;;;;;10.30;9.40;;;;;;;12.24;73.67;101409.03;1672475;83;21068;-56
2021/10/29 01:48:54;;;;;;;11.85;10.70;;;;;;;12.24;73.60;101409.03;1687771;83;21563;-59
2021/10/29 01:51:20;;;;;;;11.55;10.55;;;;;;;12.22;73.62;101407.52;1684427;83;21012;-59
2021/10/29 01:53:47;;;;;;;11.85;10.75;;;;;;;12.17;73.88;101405.38;1694767;83;20990;-59
2021/10/29 01:56:13;;;;;;;10.95;9.85;;;;;;;12.10;74.11;101407.58;1701938;82;21072;-59
2021/10/29 01:58:39;;;;;;;10.82;9.80;;;;;;;12.00;74.24;101413.13;1696750;83;21023;-58
2021/10/29 02:01:06;;;;;;;;;;;;;;;11.91;74.43;101412.30;1689469;83;20993;-59
2021/10/29 02:03:34;;;;;;;11.20;10.20;;;;;;;11.85;74.47;101411.62;1687392;83;20159;-60
2021/10/29 02:06:01;;;;;;;10.88;9.88;;;;;;;11.77;74.53;101408.47;1684293;83;21025;-59
2021/10/29 02:08:28;;;;;;;11.43;10.43;;;;;;;11.72;74.71;101413.47;1621154;86;21081;-59
2021/10/29 02:10:55;;;;;;;12.82;11.60;;;;;;;11.67;74.94;101413.14;1631669;86;21058;-60
2021/10/29 02:13:23;;;;;;;14.18;12.23;;;;;;;11.61;75.23;101419.17;1655244;84;21024;-58
2021/10/29 02:15:50;;;;;;;12.40;11.25;;;;;;;11.52;75.40;101422.84;1653565;84;21065;-59
2021/10/29 02:18:16;;;;;;;;;;;;;;;11.46;75.42;101433.18;1641407;86;21070;-59
2021/10/29 02:20:44;;;;;;;12.78;11.53;;;;;;;11.43;75.44;101430.01;1700601;83;20193;-60
2021/10/29 02:23:32;;;;;;;12.10;11.12;;;;;;;11.38;75.73;101431.03;1618073;87;21101;-59
2021/10/29 02:25:57;;;;;;;;;;;;;;;11.32;75.96;101426.34;1647842;86;21044;-59
2021/10/29 02:28:24;;;;;;;14.70;13.20;;;;;;;11.27;76.28;101429.52;1618348;87;20109;-59
2021/10/29 02:30:51;;;;;;;13.28;11.83;;;;;;;11.20;77.40;101426.66;1647944;85;21050;-58
2021/10/29 02:33:19;;;;;;;13.70;12.30;;;;;;;11.27;77.91;101425.52;1614851;87;21062;-59
2021/10/29 02:35:45;;;;;;;12.95;11.10;;;;;;;11.36;77.16;101427.67;1647193;86;21069;-57
2021/10/29 02:38:13;;;;;;;14.40;13.05;;;;;;;11.41;76.93;101431.50;1659134;86;21114;-58
2021/10/29 02:40:40;;;;;;;11.85;10.65;;;;;;;11.41;76.73;101434.69;1648235;86;21005;-57
2021/10/29 02:43:06;;;;;;;13.30;12.00;;;;;;;11.37;76.59;101432.02;1649534;86;21089;-58
2021/10/29 02:45:32;;;;;;;12.53;11.22;;;;;;;11.28;76.16;101436.03;1633553;87;21153;-59
2021/10/29 02:47:58;;;;;;;14.68;11.90;;;;;;;11.13;76.10;101430.16;1636526;87;21504;-59
2021/10/29 02:50:24;;;;;;;11.22;10.13;;;;;;;11.12;75.84;101440.01;1645028;86;20966;-59
2021/10/29 02:52:51;;;;;;;12.60;11.38;;;;;;;11.08;75.57;101450.17;1613272;87;21090;-59
2021/10/29 02:55:18;;;;;;;11.85;10.75;;;;;;;11.05;76.33;101445.66;1623174;87;21045;-59
2021/10/29 02:57:45;;;;;;;14.03;12.28;;;;;;;11.09;77.83;101449.19;1599443;88;21032;-59
2021/10/29 03:00:17;;;;;;;13.60;12.23;;;;;;;11.15;77.76;101441.03;1626429;86;21096;-60
2021/10/29 03:02:45;;;;;;;12.03;11.03;;;;;;;11.20;78.52;101444.52;1618667;87;21052;-60
2021/10/29 03:05:13;;;;;;;12.95;11.60;;;;;;;11.21;78.79;101442.20;1646889;86;21512;-58
2021/10/29 03:07:41;;;;;;;12.43;11.05;;;;;;;11.26;79.25;101445.19;1642500;86;21053;-61
2021/10/29 03:10:11;;;;;;;13.93;12.23;;;;;;;11.38;79.37;101448.38;1625411;87;21603;-60
2021/10/29 03:12:40;;;;;;;12.18;11.05;;;;;;;11.46;79.29;101446.53;1618134;87;21085;-59
2021/10/29 03:15:09;;;;;;;13.58;12.30;;;;;;;11.45;78.73;101442.21;1655038;85;21553;-59
2021/10/29 03:17:39;;;;;;;13.48;12.23;;;;;;;11.39;77.51;101442.85;1653686;86;21088;-58
2021/10/29 03:20:09;;;;;;;14.90;13.40;;;;;;;11.25;76.69;101436.86;1654429;85;21333;-59
2021/10/29 03:22:37;;;;;;;14.90;13.43;;;;;;;11.10;76.40;101444.17;1647936;86;21068;-59
2021/10/29 03:25:06;;;;;;;14.73;12.80;;;;;;;10.97;76.44;101437.66;1637303;86;20998;-58
2021/10/29 03:27:34;;;;;;;19.00;13.47;;;;;;;10.86;76.22;101442.28;1635283;86;21026;-58
2021/10/29 03:30:00;;;;;;;16.05;12.65;;;;;;;10.81;76.21;101447.77;1665314;84;21008;-59
2021/10/29 03:32:26;;;;;;;15.83;13.85;;;;;;;10.73;76.07;101437.09;1667622;86;21565;-60
2021/10/29 03:34:53;;;;;;;15.98;14.20;;;;;;;10.65;76.22;101445.91;1645896;86;21100;-58
2021/10/29 03:42:49;;;;;;;15.50;13.90;;;;;;;10.39;76.99;101447.30;1623767;87;21064;-60
2021/10/29 03:45:12;;;;;;;17.60;14.50;;;;;;;10.36;76.81;101454.27;1632875;84;21005;-58
2021/10/29 03:47:46;;;;;;;14.33;12.93;;;;;;;10.33;76.27;101460.77;1641858;86;21097;-58
2021/10/29 03:50:22;;;;;;;14.97;13.47;;;;;;;10.25;76.13;101455.38;1652139;86;21109;-58
2021/10/29 03:55:36;;;;;;;15.17;13.53;;;;;;;10.07;76.70;101463.42;1625597;87;21076;-59
2021/10/29 03:58:01;;;;;;;16.90;15.20;;;;;;;9.97;77.23;101466.20;1643161;87;21186;-59
2021/10/29 04:03:15;;;;;;;17.00;15.20;;;;;;;10.10;78.31;101474.60;1803549;77;22637;-60
2021/10/29 04:05:41;;;;;;;17.07;14.65;;;;;;;9.95;78.94;101446.87;1767971;78;21128;-58
2021/10/29 04:08:09;;;;;;;17.93;14.63;;;;;;;10.16;78.42;101469.14;1773922;78;21014;-59
2021/10/29 04:10:41;;;;;;;17.90;15.17;;;;;;;10.16;78.07;101469.64;1771495;78;20986;-58
2021/10/29 04:13:09;;;;;;;16.07;14.07;;;;;;;10.09;77.79;101466.77;1730683;80;21014;-60
2021/10/29 04:15:33;;;;;;;17.17;15.27;;;;;;;10.01;77.50;101466.22;1731310;81;21538;-60
2021/10/29 04:17:59;;;;;;;17.40;14.55;;;;;;;9.92;77.44;101470.64;1747194;81;21030;-57
2021/10/29 04:20:26;;;;;;;25.57;14.40;;;;;;;9.86;77.34;101472.61;1735816;81;21017;-59
2021/10/29 04:22:52;;;;;;;17.05;15.23;;;;;;;9.84;77.08;101479.92;1725576;81;21046;-58
2021/10/29 04:25:18;;;;;;;16.97;15.17;;;;;;;9.78;76.99;101477.89;1725052;82;21018;-59
2021/10/29 04:27:48;;;;;;;18.37;14.95;;;;;;;9.70;77.08;101478.66;1718941;82;21041;-60
2021/10/29 04:30:18;;;;;;;16.40;14.70;;;;;;;9.61;77.27;101488.08;1718756;82;21606;-60
2021/10/29 04:32:42;;;;;;;16.80;15.00;;;;;;;9.50;77.49;101487.81;1722862;82;21077;-58
2021/10/29 04:35:10;;;;;;;17.75;15.93;;;;;;;9.46;77.68;101489.94;1732755;81;21001;-57
2021/10/29 04:37:39;;;;;;;18.90;14.43;;;;;;;9.46;77.59;101481.13;1733594;81;21540;-60
2021/10/29 04:40:08;;;;;;;17.13;15.27;;;;;;;9.46;77.67;101490.44;1733742;81;21010;-61
2021/10/29 04:42:36;;;;;;;17.40;15.67;;;;;;;9.45;78.20;101494.91;1733720;81;21509;-60
2021/10/29 04:45:05;;;;;;;16.20;14.60;;;;;;;9.46;78.55;101494.43;1733240;81;21024;-60
2021/10/29 04:47:32;;;;;;;17.33;15.67;;;;;;;9.38;78.61;101485.88;1733319;81;21134;-61
2021/10/29 04:49:58;;;;;;;16.50;14.83;;;;;;;9.42;78.24;101504.55;1733053;81;20973;-61
2021/10/29 04:52:25;;;;;;;15.32;13.68;;;;;;;9.42;77.94;101504.55;1735292;81;21112;-60
2021/10/29 04:54:51;;;;;;;21.65;15.53;;;;;;;9.46;78.04;101505.08;1734699;81;21044;-60
2021/10/29 04:57:17;;;;;;;16.67;15.08;;;;;;;9.46;78.15;101511.73;1725850;81;20984;-60
2021/10/29 04:59:43;;;;;;;16.93;15.25;;;;;;;9.43;78.28;101520.83;1732470;81;21060;-60
2021/10/29 05:02:10;;;;;;;17.32;15.60;;;;;;;9.41;78.34;101517.49;1695625;82;21011;-62
2021/10/29 05:04:36;;;;;;;18.82;15.40;;;;;;;9.44;79.10;101514.54;1703741;83;21070;-63
2021/10/29 05:07:04;;;;;;;17.73;15.35;;;;;;;9.65;79.97;101513.39;1703436;82;21045;-63
2021/10/29 05:09:30;;;;;;;27.97;14.50;;;;;;;9.94;79.47;101512.64;1702988;82;21517;-62
2021/10/29 05:11:56;;;;;;;39.78;17.00;;;;;;;10.15;77.72;101514.08;1696444;82;21495;-62
2021/10/29 05:14:22;;;;;;;21.27;14.63;;;;;;;10.24;76.80;101513.64;1701661;82;21046;-61
2021/10/29 05:16:50;;;;;;;16.83;15.03;;;;;;;10.24;76.26;101516.31;1712623;82;21507;-63
2021/10/29 05:19:17;;;;;;;16.87;15.28;;;;;;;10.22;76.10;101515.13;1703398;82;22386;-62
2021/10/29 05:21:43;;;;;;;19.83;17.27;;;;;;;10.19;76.02;101517.27;1703467;82;21525;-63
2021/10/29 05:24:10;;;;;;;17.35;14.63;;;;;;;10.27;76.36;101518.17;1725346;82;21014;-63
2021/10/29 05:26:37;;;;;;;16.12;12.78;;;;;;;10.64;76.73;101517.07;1690925;83;21031;-63
2021/10/29 05:29:04;;;;;;;15.65;14.05;;;;;;;11.20;75.22;101523.25;1730447;82;21084;-65
2021/10/29 05:31:31;;;;;;;20.23;14.58;;;;;;;11.80;73.24;101522.97;1725158;81;21525;-63
2021/10/29 05:33:58;;;;;;;19.55;14.68;;;;;;;12.33;71.12;101523.44;1713911;81;21022;-64
2021/10/29 05:36:25;;;;;;;15.93;13.80;;;;;;;12.84;69.22;101527.11;1695125;83;21498;-64
2021/10/29 05:38:51;;;;;;;17.48;14.90;;;;;;;13.35;67.34;101524.02;1695455;83;21087;-64
2021/10/29 05:41:17;;;;;;;16.80;15.08;;;;;;;13.79;66.11;101522.85;1695635;83;21074;-66
2021/10/29 05:43:44;;;;;;;16.70;14.90;;;;;;;14.10;64.61;101523.23;1694657;83;21577;-62
2021/10/29 05:46:10;;;;;;;16.52;15.00;;;;;;;14.13;63.20;101524.22;1689630;83;21036;-66
2021/10/29 05:48:39;;;;;;;17.82;16.17;;;;;;;13.93;62.87;101529.77;1689245;83;21081;-62
2021/10/29 05:51:10;;;;;;;19.42;17.40;;;;;;;13.62;63.51;101532.05;1690313;83;20974;-62
2021/10/29 05:56:17;;;;;;;18.40;16.32;;;;;;;13.03;65.19;101537.41;1694228;83;20983;-60
2021/10/29 05:58:43;;;;;;;20.27;17.32;;;;;;;12.79;66.00;101543.70;1693583;83;21029;-60
2021/10/29 06:01:09;;;;;;;;;;;;;;;12.63;66.72;101544.57;1723524;82;21129;-62
2021/10/29 06:03:36;;;;;;;23.65;17.85;;;;;;;12.54;67.31;101549.61;1738391;81;20422;-60
2021/10/29 06:06:02;;;;;;;21.93;18.23;;;;;;;12.43;68.08;101549.98;1741394;82;21125;-61
2021/10/29 06:08:28;;;;;;;23.12;20.50;;;;;;;12.38;68.78;101555.85;1741577;81;21011;-60
2021/10/29 06:10:55;;;;;;;33.55;21.27;;;;;;;12.33;69.35;101550.68;1746883;81;21065;-60
2021/10/29 06:13:23;;;;;;;23.70;20.77;;;;;;;12.32;69.62;101555.20;1685778;82;20963;-62
2021/10/29 06:15:49;;;;;;;22.90;20.50;;;;;;;12.32;69.80;101560.55;1681254;84;21119;-60
2021/10/29 06:18:27;;;;;;;28.00;21.82;;;;;;;12.35;69.85;101556.69;1681257;84;21007;-60
2021/10/29 06:20:50;;;;;;;29.20;23.55;;;;;;;12.37;69.99;101552.00;1684161;84;21090;-60
2021/10/29 06:23:21;;;;;;;27.93;23.55;;;;;;;12.44;70.32;101563.18;1686453;84;21019;-62
2021/10/29 06:25:47;;;;;;;29.30;24.80;;;;;;;12.55;70.60;101560.66;1692084;83;21036;-64
2021/10/29 06:28:28;;;;;;;35.38;26.73;;;;;;;12.65;70.72;101557.27;1684293;83;21038;-62
2021/10/29 06:30:47;;;;;;;30.10;26.90;;;;;;;12.72;71.00;101564.11;1686973;83;22031;-62
2021/10/29 06:33:20;;;;;;;35.08;26.42;;;;;;;12.77;71.32;101570.27;1694135;83;21002;-61
2021/10/29 06:35:47;;;;;;;29.90;25.55;;;;;;;12.81;71.35;101572.45;1681384;84;21062;-63
2021/10/29 06:38:15;;;;;;;28.05;24.90;;;;;;;12.85;71.33;101567.59;1693218;83;21491;-62
2021/10/29 06:40:45;;;;;;;30.40;24.47;;;;;;;12.93;71.23;101569.39;1688686;83;21103;-64
2021/10/29 06:43:34;;;;;;;31.68;25.75;;;;;;;13.05;71.22;101569.33;1692034;83;21070;-63
2021/10/29 06:46:11;;;;;;;28.67;25.60;;;;;;;13.16;71.02;101570.78;1688187;83;21578;-60
2021/10/29 07:02:08;;;;;;;22.00;19.55;;;;;;;13.44;71.91;101581.36;1716536;82;21062;-63
2021/10/29 07:40:08;;;;;;;22.82;20.68;;;;;;;13.75;70.66;101601.08;1718771;82;21059;-69
2021/10/29 07:42:43;;;;;;;18.98;17.10;;;;;;;13.74;70.79;101600.26;1718196;82;21046;-68
2021/10/29 07:45:10;;;;;;;18.40;16.60;;;;;;;13.72;70.51;101606.30;1719481;82;21400;-65
2021/10/29 07:47:41;;;;;;;14.65;13.30;;;;;;;13.71;70.60;101597.09;1719123;82;21539;-67
2021/10/29 07:50:11;;;;;;;16.57;15.08;;;;;;;13.73;70.88;101600.43;1716744;82;21074;-66
2021/10/29 07:52:38;;;;;;;16.95;15.35;;;;;;;13.73;71.04;101601.29;1718376;82;22456;-66
2021/10/29 07:55:08;;;;;;;18.80;16.90;;;;;;;13.78;70.81;101604.76;1721611;81;21134;-66
2021/10/29 07:57:36;;;;;;;18.12;16.30;;;;;;;13.79;70.72;101597.89;1721375;82;21037;-66
2021/10/29 08:00:08;;;;;;;17.67;16.05;;;;;;;13.81;70.60;101600.39;1722637;82;21019;-66
2021/10/29 08:02:35;;;;;;;14.80;13.45;;;;;;;13.82;70.51;101602.05;1730650;82;21035;-67
2021/10/29 08:05:03;;;;;;;17.70;16.10;;;;;;;13.91;70.44;101605.51;1722806;82;21046;-67
2021/10/29 08:07:31;;;;;;;17.50;15.85;;;;;;;14.01;70.10;101603.41;1706270;82;21043;-65
2021/10/29 08:10:05;;;;;;;20.05;18.15;;;;;;;14.08;69.62;101603.53;1725078;82;21071;-66
2021/10/29 08:12:33;;;;;;;21.60;19.48;;;;;;;14.08;69.63;101603.02;1702789;80;21041;-65
2021/10/29 08:15:03;;;;;;;26.00;23.12;;;;;;;14.10;69.69;101603.66;1693259;83;21045;-66
2021/10/29 08:17:34;;;;;;;22.27;20.17;;;;;;;14.13;69.41;101606.00;1692407;83;21022;-64
2021/10/29 08:20:03;;;;;;;18.57;16.73;;;;;;;14.20;69.34;101602.92;1692990;83;20966;-67
2021/10/29 08:22:30;;;;;;;16.35;14.87;;;;;;;14.28;68.76;101602.02;1699605;82;20994;-66
2021/10/29 08:24:56;;;;;;;14.13;12.78;;;;;;;14.37;68.40;101605.43;1719279;82;21022;-66
2021/10/29 08:27:24;;;;;;;17.32;15.83;;;;;;;14.44;68.19;101610.40;1721546;82;21037;-66
2021/10/29 08:29:50;;;;;;;17.52;15.80;;;;;;;14.45;68.25;101613.42;1727777;82;21005;-66
2021/10/29 08:32:16;;;;;;;16.57;15.03;;;;;;;14.48;67.99;101614.89;1725552;82;21070;-65
2021/10/29 08:34:43;;;;;;;18.23;15.60;;;;;;;14.48;67.71;101619.74;1688519;82;21487;-66
2021/10/29 08:37:10;;;;;;;18.30;16.40;;;;;;;14.47;67.65;101616.75;1672344;84;21518;-67
2021/10/29 08:39:38;;;;;;;18.87;16.67;;;;;;;14.49;67.71;101619.25;1676957;84;21028;-67
2021/10/29 08:42:07;;;;;;;17.87;16.23;;;;;;;14.55;67.50;101615.83;1673733;84;21517;-68
2021/10/29 08:44:35;;;;;;;14.68;13.15;;;;;;;14.63;67.21;101620.31;1670283;83;21601;-66
2021/10/29 08:47:04;;;;;;;16.55;15.05;;;;;;;14.68;67.19;101613.37;1690323;83;21076;-66
2021/10/29 08:49:33;;;;;;;17.15;15.65;;;;;;;14.73;67.05;101616.34;1700544;83;21540;-66
2021/10/29 08:52:02;;;;;;;14.75;13.53;;;;;;;14.73;66.67;101610.98;1692779;83;21081;-65
2021/10/29 08:54:31;;;;;;;16.15;14.75;;;;;;;14.67;66.54;101615.72;1684962;83;20999;-65
2021/10/29 08:57:00;;;;;;;15.85;14.35;;;;;;;14.65;66.75;101613.73;1711523;82;21322;-67
2021/10/29 09:02:17;;;;;;;14.23;12.30;;;;;;;14.82;66.10;101614.91;1685375;82;21050;-64
2021/10/29 09:07:28;;;;;;;15.90;12.95;;;;;;;14.96;65.99;101608.19;1673469;83;21067;-66
2021/10/29 09:33:00;;;;;;;17.77;13.32;;;;;;;15.00;64.21;101611.34;1658047;85;21052;-65
2021/10/29 09:35:17;;;;;;;15.65;14.00;;;;;;;15.04;64.20;101607.77;1682837;83;21056;-67
2021/10/29 09:38:09;;;;;;;15.53;13.30;;;;;;;15.08;63.92;101603.69;1688809;83;21041;-65
2021/10/29 09:41:02;;;;;;;18.98;16.05;;;;;;;15.13;63.88;101601.28;1684455;83;21570;-66
2021/10/29 09:43:33;;;;;;;18.07;16.00;;;;;;;15.18;63.34;101606.91;1673863;83;21614;-66
2021/10/29 09:46:02;;;;;;;15.85;14.15;;;;;;;15.19;63.15;101601.87;1674109;83;21480;-65
2021/10/29 09:51:11;;;;;;;16.70;14.93;;;;;;;15.16;62.96;101601.75;1675917;83;21426;-66
2021/10/29 09:56:21;;;;;;;17.90;15.28;;;;;;;15.28;62.85;101600.74;1676869;83;21096;-65
2021/10/29 09:58:42;;;;;;;18.25;15.18;;;;;;;15.45;62.53;101599.18;1666960;84;21526;-66
2021/10/29 10:01:09;;;;;;;18.87;15.18;;;;;;;15.61;62.24;101597.58;1671564;83;21025;-66
2021/10/29 10:03:39;;;;;;;20.60;15.35;;;;;;;15.78;61.07;101597.37;1662615;83;21588;-64
2021/10/29 10:06:07;;;;;;;16.17;13.93;;;;;;;15.82;60.58;101595.95;1661827;84;21092;-65
2021/10/29 10:08:34;;;;;;;17.75;16.05;;;;;;;15.76;60.68;101597.55;1630083;85;20982;-66
2021/10/29 10:11:02;;;;;;;20.82;16.37;;;;;;;15.66;61.10;101597.84;1655069;83;21281;-67
2021/10/29 10:13:33;;;;;;;17.10;15.40;;;;;;;15.59;61.26;101598.28;1651899;83;21077;-65
2021/10/29 10:16:02;;;;;;;15.55;14.03;;;;;;;15.57;61.27;101596.30;1651592;83;21458;-66
2021/10/29 10:18:29;;;;;;;17.48;14.20;;;;;;;15.60;61.41;101592.42;1611185;85;21141;-67
2021/10/29 10:20:58;;;;;;;17.00;15.05;;;;;;;15.67;61.43;101592.80;1660319;84;21046;-65
2021/10/29 10:23:32;;;;;;;17.52;15.60;;;;;;;15.73;60.85;101599.27;1665295;83;21033;-65
2021/10/29 10:43:17;;;;;;;12.93;10.90;;;;;;;15.81;59.15;101592.97;1666188;83;21114;-66
2021/10/29 10:45:48;;;;;;;15.80;11.70;;;;;;;15.85;59.10;101591.55;1661493;83;21640;-68
2021/10/29 10:48:25;;;;;;;12.85;11.65;;;;;;;15.93;58.71;101590.06;1673805;84;21010;-64
2021/10/29 10:50:56;;;;;;;13.58;11.20;;;;;;;16.03;58.56;101583.86;1669358;83;21041;-65
2021/10/29 10:53:30;;;;;;;15.38;11.65;;;;;;;16.11;58.28;101582.89;1668450;83;20994;-66
2021/10/29 11:01:20;;;;;;;12.40;11.18;;;;;;;16.03;57.28;101586.55;1680011;83;21022;-68
2021/10/29 11:04:09;;;;;;;10.95;9.85;;;;;;;15.98;57.88;101587.63;1673135;83;21140;-67
2021/10/29 11:10:05;;;;;;;9.55;8.65;;;;;;;15.98;57.21;101582.78;1644943;83;21531;-69
2021/10/29 11:12:48;;;;;;;8.33;7.28;;;;;;;15.97;56.80;101575.20;1612108;86;21295;-70
2021/10/29 11:15:25;;;;;;;8.60;7.70;;;;;;;16.00;56.79;101577.52;1615282;86;21057;-68
2021/10/29 11:18:00;;;;;;;12.90;9.00;;;;;;;16.05;56.70;101577.77;1640558;86;21527;-68
2021/10/29 11:20:42;;;;;;;11.00;9.10;;;;;;;16.09;56.57;101583.59;1660604;84;21007;-67
2021/10/29 11:23:32;;;;;;;12.95;11.70;;;;;;;16.08;56.73;101581.92;1674383;83;21054;-67
2021/10/29 11:26:05;;;;;;;11.22;10.00;;;;;;;16.00;57.27;101576.69;1712030;82;21022;-66
2021/10/29 11:28:46;;;;;;;15.40;11.08;;;;;;;15.89;57.64;101561.38;1725627;82;21021;-68
2021/10/29 11:31:16;;;;;;;12.53;10.85;;;;;;;15.93;57.70;101577.96;1710371;82;21099;-67
2021/10/29 11:33:47;;;;;;;11.70;10.60;;;;;;;15.88;57.69;101577.70;1713054;82;21159;-66
2021/10/29 11:36:16;;;;;;;10.55;9.40;;;;;;;15.86;57.85;101581.09;1698130;83;21010;-67
2021/10/29 11:38:46;;;;;;;13.03;9.40;;;;;;;15.81;57.24;101579.52;1686017;83;21069;-68
2021/10/29 11:41:17;;;;;;;9.53;8.60;;;;;;;15.76;57.12;101580.94;1681064;83;21030;-66
2021/10/29 11:43:45;;;;;;;8.88;7.97;;;;;;;15.74;56.94;101577.58;1679340;83;21045;-68
2021/10/29 11:46:14;;;;;;;6.42;4.97;;;;;;;15.77;56.79;101580.41;1709031;83;21030;-69
2021/10/29 11:48:54;;;;;;;3.95;3.65;;;;;;;15.81;55.63;101585.72;1693998;83;21087;-68
2021/10/29 11:51:23;;;;;;;5.95;4.37;;;;;;;15.84;54.26;101586.69;1706914;83;21188;-74
2021/10/29 11:56:41;;;;;;;9.28;8.25;;;;;;;15.92;55.45;101578.48;1690269;83;21057;-68
2021/10/29 11:59:39;;;;;;;8.80;7.78;;;;;;;15.93;55.59;101586.03;1681324;84;21121;-68
2021/10/29 12:02:02;;;;;;;6.37;5.45;;;;;;;15.94;55.60;101582.33;1675597;82;20971;-69
2021/10/29 12:07:22;;;;;;;5.62;4.95;;;;;;;16.09;54.50;101576.88;1647522;85;21144;-69
2021/10/29 12:10:03;;;;;;;3.52;3.12;;;;;;;16.14;54.06;101576.61;1717758;83;21026;-68
2021/10/29 12:12:37;;;;;;;4.75;3.10;;;;;;;16.19;52.84;101578.70;1741311;80;21038;-69
2021/10/29 12:15:13;;;;;;;5.35;4.55;;;;;;;16.21;52.93;101570.44;1743160;81;21046;-67
2021/10/29 12:17:54;;;;;;;4.40;4.08;;;;;;;16.24;53.14;101575.44;1751975;80;21126;-67
2021/10/29 12:20:32;;;;;;;7.33;6.62;;;;;;;16.28;52.75;101572.14;1754556;80;20963;-67
2021/10/29 12:23:11;;;;;;;11.28;5.47;;;;;;;16.33;53.21;101572.89;1756037;79;21604;-67
2021/10/29 12:25:56;;;;;;;6.10;5.17;;;;;;;16.39;52.94;101561.85;1752068;80;21001;-67
2021/10/29 12:28:15;;;;;;;5.70;5.15;;;;;;;16.43;52.68;101563.15;1752178;80;21596;-69
2021/10/29 12:53:13;;;;;;;10.40;6.35;;;;;;;16.35;53.27;101553.38;1676935;84;21147;-69
2021/10/29 13:01:35;;;;;;;12.60;6.08;;;;;;;16.12;52.94;101543.70;1699094;81;21054;-66
2021/10/29 13:04:08;;;;;;;7.20;5.35;;;;;;;16.05;53.05;101545.50;1670824;83;21085;-69
2021/10/29 13:06:55;;;;;;;14.53;6.37;;;;;;;16.03;53.00;101542.17;1634624;86;21022;-69
2021/10/29 13:09:28;;;;;;;12.10;4.50;;;;;;;16.01;52.93;101544.23;1657412;83;21069;-66
2021/10/29 13:12:06;;;;;;;10.82;5.95;;;;;;;16.00;52.56;101543.90;1666202;83;22065;-66
2021/10/29 13:14:33;;;;;;;5.45;4.92;;;;;;;15.95;52.51;101544.98;1636931;85;21053;-67
2021/10/29 13:17:01;;;;;;;6.10;5.50;;;;;;;15.92;52.80;101544.05;1638303;85;21577;-66
2021/10/29 13:35:49;;;;;;;6.72;5.00;;;;;;;15.75;53.32;101547.00;1659402;86;21533;-67
2021/10/29 14:36:46;;;;;;;15.53;7.42;;;;;;;15.00;55.43;101533.48;1675048;85;21502;-66
2021/10/29 14:39:13;;;;;;;12.05;7.28;;;;;;;14.96;55.58;101528.98;1665630;84;21418;-67
2021/10/29 14:41:41;;;;;;;12.20;7.17;;;;;;;14.91;55.71;101533.26;1668112;85;21034;-66
2021/10/29 14:44:16;;;;;;;18.75;8.00;;;;;;;14.86;55.97;101535.66;1688034;83;21591;-69
2021/10/29 14:49:39;;;;;;;16.02;7.05;;;;;;;14.67;56.70;101523.14;1703051;83;21530;-67
2021/10/29 15:24:35;;;;;;;15.35;11.43;;;;;;;13.73;58.89;101538.31;1701614;83;21130;-65
2021/10/29 15:26:50;;;;;;;18.00;14.33;;;;;;;13.83;59.58;101541.57;1681409;84;21103;-67
2021/10/29 15:50:31;;;;;;;24.00;17.00;;;;;;;13.80;62.92;101555.32;1704970;83;20993;-68
2021/10/29 15:52:53;;;;;;;26.70;17.12;;;;;;;13.72;63.74;101558.59;1716120;83;21564;-69
2021/10/29 15:55:33;;;;;;;25.45;18.73;;;;;;;13.61;64.53;101563.84;1705950;83;21038;-69
2021/10/29 15:58:15;;;;;;;30.02;14.87;;;;;;;13.55;64.91;101560.55;1693290;83;21059;-66
2021/10/29 16:01:23;;;;;;;20.20;16.65;;;;;;;13.54;65.38;101558.87;1699199;83;21545;-68
2021/10/29 16:03:15;;;;;;;19.70;17.73;;;;;;;13.47;65.97;101561.92;1697710;82;21094;-67
2021/10/29 16:19:44;;;;;;;21.10;17.62;;;;;;;13.11;68.41;101585.19;1839151;75;22745;-65
2021/10/29 16:22:23;;;;;;;;;;;;;;;12.97;68.82;101590.27;1823261;77;20993;-68
2021/10/29 16:27:21;;;;;;;21.20;17.52;;;;;;;12.77;69.53;101588.52;1711025;82;21029;-69